Time;durP1;ratioP1;P1;durP2;ratioP2;P2;SDS_P1;SDS_P2;PMS_P1;PMS_P2;Temp;Humidity;BMP_temperature;BMP_pressure;BME280_temperature;BME280_humidity;BME280_pressure;Samples;Min_cycle;Max_cycle;Signal;HPM_P1;HPM_P2
2023/08/08 00:00:04;;;;;;;;;;;;;;;20.80;100.00;99282.28;5033558;28;842;-58
2023/08/08 00:02:31;;;;;;;;;;;;;;;20.85;100.00;99273.19;5032306;28;1906;-59
2023/08/08 00:04:58;;;;;;;;;;;;;;;20.96;100.00;99270.56;5033445;28;808;-59
2023/08/08 00:07:24;;;;;;;;;;;;;;;21.05;100.00;99260.47;5033399;28;877;-59
2023/08/08 00:09:51;;;;;;;;;;;;;;;21.11;100.00;99266.94;5033444;28;873;-59
2023/08/08 00:12:18;;;;;;;;;;;;;;;21.13;100.00;99258.81;5031991;28;1274;-59
2023/08/08 00:14:45;;;;;;;;;;;;;;;21.14;100.00;99257.53;5033346;28;1000;-59
2023/08/08 00:17:12;;;;;;;;;;;;;;;21.16;100.00;99255.78;5033273;28;815;-59
2023/08/08 00:19:39;;;;;;;;;;;;;;;21.00;100.00;99259.91;5033116;28;862;-58
2023/08/08 00:22:06;;;;;;;;;;;;;;;20.91;100.00;99267.66;5033426;28;862;-59
2023/08/08 00:24:34;;;;;;;;;;;;;;;20.87;100.00;99261.47;5032986;28;1945;-59
2023/08/08 00:27:00;;;;;;;;;;;;;;;20.83;100.00;99252.50;5031834;28;1307;-59
2023/08/08 00:29:28;;;;;;;;;;;;;;;20.73;100.00;99260.22;5033246;28;869;-59
2023/08/08 00:31:55;;;;;;;;;;;;;;;20.66;100.00;99264.22;5033042;28;803;-59
2023/08/08 00:34:22;;;;;;;;;;;;;;;20.62;100.00;99262.88;5032826;28;822;-60
2023/08/08 00:36:49;;;;;;;;;;;;;;;20.59;100.00;99264.63;5032956;28;889;-59
2023/08/08 00:39:17;;;;;;;;;;;;;;;20.53;100.00;99261.66;5032719;28;835;-60
2023/08/08 00:41:43;;;;;;;;;;;;;;;20.48;100.00;99265.13;5032950;28;784;-59
2023/08/08 00:44:10;;;;;;;;;;;;;;;20.45;100.00;99259.75;5032613;28;1894;-59
2023/08/08 00:46:37;;;;;;;;;;;;;;;20.42;100.00;99272.72;5032748;28;912;-58
2023/08/08 00:49:04;;;;;;;;;;;;;;;20.35;100.00;99273.06;5032604;28;1407;-59
2023/08/08 00:51:31;;;;;;;;;;;;;;;20.30;100.00;99259.72;5032663;28;819;-59
2023/08/08 00:53:58;;;;;;;;;;;;;;;20.21;100.00;99249.38;5032596;28;795;-59
2023/08/08 00:56:25;;;;;;;;;;;;;;;20.16;100.00;99261.25;5032696;28;886;-59
2023/08/08 00:58:52;;;;;;;;;;;;;;;20.13;100.00;99251.00;5032380;28;900;-60
2023/08/08 01:01:19;;;;;;;;;;;;;;;20.09;100.00;99253.22;5032376;28;814;-59
2023/08/08 01:03:46;;;;;;;;;;;;;;;20.00;100.00;99251.28;5032230;28;1887;-59
2023/08/08 01:06:32;;;;;;;;;;;;;;;20.01;100.00;99249.25;5032441;28;862;-59
2023/08/08 01:09:05;;;;;;;;;;;;;;;19.96;100.00;99245.84;5032251;28;827;-59
2023/08/08 01:11:33;;;;;;;;;;;;;;;19.90;100.00;99244.97;5032600;28;854;-58
2023/08/08 01:14:01;;;;;;;;;;;;;;;19.83;100.00;99238.97;5032159;28;869;-59
2023/08/08 01:16:28;;;;;;;;;;;;;;;19.79;100.00;99239.13;5032432;28;906;-59
2023/08/08 01:18:56;;;;;;;;;;;;;;;19.70;100.00;99236.41;5032282;28;886;-59
2023/08/08 01:21:25;;;;;;;;;;;;;;;19.65;100.00;99245.44;5032111;28;897;-59
2023/08/08 01:24:05;;;;;;;;;;;;;;;19.61;100.00;99242.03;5032082;28;1957;-59
2023/08/08 01:26:32;;;;;;;;;;;;;;;19.56;100.00;99237.88;5032024;28;965;-59
2023/08/08 01:28:58;;;;;;;;;;;;;;;19.47;100.00;99233.09;5032072;28;874;-59
2023/08/08 01:31:25;;;;;;;;;;;;;;;19.47;100.00;99235.16;5031864;28;806;-59
2023/08/08 01:33:52;;;;;;;;;;;;;;;19.42;100.00;99236.59;5032022;28;862;-59
2023/08/08 01:36:22;;;;;;;;;;;;;;;19.39;100.00;99231.91;5031919;28;905;-59
2023/08/08 01:38:52;;;;;;;;;;;;;;;19.31;100.00;99237.13;5032032;28;865;-59
2023/08/08 01:41:20;;;;;;;;;;;;;;;19.31;100.00;99236.31;5032252;28;806;-58
2023/08/08 01:43:47;;;;;;;;;;;;;;;19.32;100.00;99235.84;5032077;28;1890;-58
2023/08/08 01:46:14;;;;;;;;;;;;;;;19.35;100.00;99228.50;5031898;28;862;-59
2023/08/08 01:48:44;;;;;;;;;;;;;;;19.40;100.00;99236.28;5032222;28;940;-59
2023/08/08 01:51:11;;;;;;;;;;;;;;;19.43;100.00;99232.50;5031649;28;1232;-59
2023/08/08 01:53:38;;;;;;;;;;;;;;;19.44;100.00;99242.47;5031731;28;822;-59
2023/08/08 01:56:04;;;;;;;;;;;;;;;19.46;100.00;99236.38;5030454;28;851;-59
2023/08/08 01:58:36;;;;;;;;;;;;;;;19.46;100.00;99253.19;5031708;28;815;-59
2023/08/08 02:01:03;;;;;;;;;;;;;;;19.49;100.00;99241.06;5030327;28;1192;-59
2023/08/08 02:03:30;;;;;;;;;;;;;;;19.47;100.00;99251.97;5031550;28;1958;-59
2023/08/08 02:05:57;;;;;;;;;;;;;;;19.49;100.00;99257.88;5031702;28;836;-58
2023/08/08 02:08:24;;;;;;;;;;;;;;;19.50;100.00;99251.78;5031702;28;875;-58
2023/08/08 02:10:50;;;;;;;;;;;;;;;19.52;100.00;99256.91;5031532;28;909;-58
2023/08/08 02:13:17;;;;;;;;;;;;;;;19.52;100.00;99260.50;5031618;28;858;-60
2023/08/08 02:15:45;;;;;;;;;;;;;;;19.49;100.00;99258.63;5031569;28;877;-59
2023/08/08 02:18:10;;;;;;;;;;;;;;;19.49;100.00;99261.44;5031499;28;862;-60
2023/08/08 02:20:37;;;;;;;;;;;;;;;19.47;100.00;99261.13;5031487;28;814;-59
2023/08/08 02:23:04;;;;;;;;;;;;;;;19.47;100.00;99257.56;5031471;28;1910;-58
2023/08/08 02:25:31;;;;;;;;;;;;;;;19.45;100.00;99246.06;5031752;28;960;-58
2023/08/08 02:27:57;;;;;;;;;;;;;;;19.43;100.00;99249.31;5035367;28;917;-59
2023/08/08 02:30:24;;;;;;;;;;;;;;;19.43;100.00;99260.53;5035287;28;924;-59
2023/08/08 02:32:51;;;;;;;;;;;;;;;19.43;100.00;99268.16;5035174;28;826;-59
2023/08/08 02:35:18;;;;;;;;;;;;;;;19.42;100.00;99264.59;5035249;28;878;-59
2023/08/08 02:37:45;;;;;;;;;;;;;;;19.43;100.00;99274.53;5035220;28;905;-59
2023/08/08 02:40:12;;;;;;;;;;;;;;;19.42;100.00;99277.84;5035129;28;839;-59
2023/08/08 02:42:40;;;;;;;;;;;;;;;19.43;100.00;99274.53;5034980;28;1882;-58
2023/08/08 02:45:07;;;;;;;;;;;;;;;19.43;100.00;99285.00;5035063;28;874;-58
2023/08/08 02:47:34;;;;;;;;;;;;;;;19.43;100.00;99282.94;5034731;28;945;-58
2023/08/08 02:50:00;;;;;;;;;;;;;;;19.41;100.00;99281.88;5034840;28;1274;-59
2023/08/08 02:52:27;;;;;;;;;;;;;;;19.38;100.00;99284.38;5033558;28;1220;-59
2023/08/08 02:54:54;;;;;;;;;;;;;;;19.31;100.00;99290.34;5034883;28;803;-59
2023/08/08 02:57:20;;;;;;;;;;;;;;;19.32;100.00;99288.31;5034875;28;886;-58
2023/08/08 02:59:47;;;;;;;;;;;;;;;19.30;100.00;99296.41;5034852;28;881;-58
2023/08/08 03:02:14;;;;;;;;;;;;;;;19.25;100.00;99297.84;5034600;28;862;-59
2023/08/08 03:04:41;;;;;;;;;;;;;;;19.26;100.00;99305.00;5034974;28;1977;-59
2023/08/08 03:07:07;;;;;;;;;;;;;;;19.26;100.00;99301.41;5034635;28;925;-58
2023/08/08 03:09:33;;;;;;;;;;;;;;;19.25;100.00;99306.25;5034605;28;783;-59
2023/08/08 03:12:01;;;;;;;;;;;;;;;19.22;100.00;99315.59;5034582;28;822;-58
2023/08/08 03:14:28;;;;;;;;;;;;;;;19.17;100.00;99310.66;5034463;28;975;-59
2023/08/08 03:16:54;;;;;;;;;;;;;;;19.17;100.00;99313.44;5034728;28;871;-59
2023/08/08 03:19:21;;;;;;;;;;;;;;;19.21;100.00;99318.88;5033061;28;1359;-59
2023/08/08 03:21:48;;;;;;;;;;;;;;;19.22;100.00;99321.19;5034456;28;839;-58
2023/08/08 03:24:15;;;;;;;;;;;;;;;19.23;100.00;99314.34;5034085;28;1953;-58
2023/08/08 03:26:42;;;;;;;;;;;;;;;19.19;100.00;99313.75;5034284;28;881;-59
2023/08/08 03:29:12;;;;;;;;;;;;;;;19.23;100.00;99319.97;5034339;28;933;-59
2023/08/08 03:31:39;;;;;;;;;;;;;;;19.21;100.00;99330.84;5034488;28;783;-59
2023/08/08 03:34:06;;;;;;;;;;;;;;;19.23;100.00;99331.16;5034118;28;811;-59
2023/08/08 03:36:33;;;;;;;;;;;;;;;19.21;100.00;99335.69;5033906;28;830;-58
2023/08/08 03:38:59;;;;;;;;;;;;;;;19.24;100.00;99329.13;5033966;28;803;-58
2023/08/08 03:41:26;;;;;;;;;;;;;;;19.29;100.00;99337.69;5034216;28;822;-59
2023/08/08 03:56:30;;;;;;;;;;;;;;;19.36;100.00;99345.72;5012521;28;1130;-59
2023/08/08 03:58:57;;;;;;;;;;;;;;;19.37;100.00;99338.09;5014070;28;827;-59
2023/08/08 04:01:24;;;;;;;;;;;;;;;19.44;100.00;99371.41;5013810;28;848;-59
2023/08/08 04:03:50;;;;;;;;;;;;;;;19.44;100.00;99359.38;5013728;28;1993;-59
2023/08/08 04:06:17;;;;;;;;;;;;;;;19.45;100.00;99366.56;5012342;28;2456;-59
2023/08/08 04:08:44;;;;;;;;;;;;;;;19.42;100.00;99353.50;5013694;28;847;-59
2023/08/08 04:11:10;;;;;;;;;;;;;;;19.38;100.00;99354.44;5012295;28;1223;-59
2023/08/08 04:25:48;;;;;;;;;;;;;;;19.34;100.00;99373.44;5033655;28;621;-59
2023/08/08 04:28:14;;;;;;;;;;;;;;;19.38;100.00;99373.28;5033119;28;857;-58
2023/08/08 04:30:41;;;;;;;;;;;;;;;19.37;100.00;99368.91;5033332;28;1161;-59
2023/08/08 04:33:07;;;;;;;;;;;;;;;19.35;100.00;99369.41;5033754;28;755;-58
2023/08/08 04:35:34;;;;;;;;;;;;;;;19.30;100.00;99374.88;5032894;28;893;-58
2023/08/08 04:38:03;;;;;;;;;;;;;;;19.27;100.00;99378.63;5032882;28;807;-59
2023/08/08 04:40:29;;;;;;;;;;;;;;;19.25;100.00;99369.91;5033022;28;826;-59
2023/08/08 04:42:56;;;;;;;;;;;;;;;19.27;100.00;99379.41;5032798;28;1890;-58
2023/08/08 04:45:22;;;;;;;;;;;;;;;19.33;100.00;99374.72;5032638;28;1268;-58
2023/08/08 04:47:49;;;;;;;;;;;;;;;19.30;100.00;99364.44;5032896;28;917;-59
2023/08/08 04:50:16;;;;;;;;;;;;;;;19.32;100.00;99380.78;5032174;28;894;-59
2023/08/08 04:52:42;;;;;;;;;;;;;;;19.36;100.00;99379.34;5032646;28;873;-58
2023/08/08 04:55:10;;;;;;;;;;;;;;;19.34;100.00;99379.06;5032308;28;1282;-59
2023/08/08 04:57:37;;;;;;;;;;;;;;;19.33;100.00;99404.72;5032491;28;861;-60
2023/08/08 05:00:06;;;;;;;;;;;;;;;19.38;100.00;99387.28;5032469;28;885;-58
2023/08/08 05:02:33;;;;;;;;;;;;;;;19.52;100.00;99395.03;5032747;28;866;-59
2023/08/08 05:17:11;;;;;;;;;;;;;;;19.83;100.00;99398.78;5031435;28;696;-58
2023/08/08 05:19:38;;;;;;;;;;;;;;;19.88;100.00;99414.97;5032502;28;913;-59
2023/08/08 05:22:05;;;;;;;;;;;;;;;19.94;100.00;99424.28;5032118;28;839;-59
2023/08/08 05:24:31;;;;;;;;;;;;;;;20.05;100.00;99429.34;5032208;28;1959;-58
2023/08/08 05:26:58;;;;;;;;;;;;;;;19.97;100.00;99434.53;5031903;28;843;-59
2023/08/08 05:29:25;;;;;;;;;;;;;;;19.86;100.00;99439.88;5032055;28;850;-59
2023/08/08 09:46:12;;;;;;;;;;;;;;;20.26;98.73;99635.91;5510294;23;1630;-58
2023/08/08 09:48:39;;;;;;;;;;;;;;;20.12;100.00;99631.78;4971795;28;1688;-59
2023/08/08 09:51:06;;;;;;;;;;;;;;;20.09;100.00;99635.50;4973400;28;782;-58
2023/08/08 09:53:33;;;;;;;;;;;;;;;19.95;100.00;99627.75;4973071;28;879;-58
2023/08/08 09:56:01;;;;;;;;;;;;;;;19.76;100.00;99627.03;4973187;28;890;-58
2023/08/08 09:58:28;;;;;;;;;;;;;;;19.67;100.00;99627.00;4973073;28;851;-58
2023/08/08 10:00:55;;;;;;;;;;;;;;;19.52;100.00;99627.66;4973078;28;835;-58
2023/08/08 10:03:22;;;;;;;;;;;;;;;19.51;100.00;99622.53;4973204;28;1918;-58
2023/08/08 10:05:49;;;;;;;;;;;;;;;19.56;100.00;99617.03;4971802;28;854;-58
2023/08/08 10:08:16;;;;;;;;;;;;;;;19.58;100.00;99627.78;4972877;28;902;-57
2023/08/08 10:10:46;;;;;;;;;;;;;;;19.60;100.00;99633.72;4972890;28;845;-59
2023/08/08 10:13:22;;;;;;;;;;;;;;;19.48;100.00;99637.44;4973205;28;818;-58
2023/08/08 10:15:48;;;;;;;;;;;;;;;19.32;100.00;99644.16;4972764;28;807;-59
2023/08/08 10:18:15;;;;;;;;;;;;;;;19.30;100.00;99643.84;4972796;28;916;-58
2023/08/08 10:20:45;;;;;;;;;;;;;;;19.21;100.00;99630.63;4972814;28;930;-58
2023/08/08 10:23:14;;;;;;;;;;;;;;;19.10;100.00;99630.31;4972673;28;1945;-58
2023/08/08 10:37:56;;;;;;;;;;;;;;;18.70;100.00;99640.31;4987162;28;803;-57
2023/08/08 10:40:23;;;;;;;;;;;;;;;18.27;100.00;99632.84;4992301;28;897;-59
2023/08/08 10:42:51;;;;;;;;;;;;;;;18.29;100.00;99630.38;4992216;28;843;-59
2023/08/08 10:45:18;;;;;;;;;;;;;;;18.43;100.00;99638.19;4992126;28;971;-59
2023/08/08 10:47:45;;;;;;;;;;;;;;;18.57;100.00;99640.41;4993908;28;1410;-58
2023/08/08 10:53:14;;;;;;;;;;;;;;;18.76;100.00;99632.09;4995211;28;822;-59
2023/08/08 10:55:42;;;;;;;;;;;;;;;18.79;100.00;99658.41;4995625;28;854;-59
2023/08/08 10:58:10;;;;;;;;;;;;;;;18.76;100.00;99641.25;4995814;28;939;-58
2023/08/08 11:00:39;;;;;;;;;;;;;;;18.79;100.00;99655.59;4995392;28;863;-58
2023/08/08 11:03:06;;;;;;;;;;;;;;;18.91;100.00;99663.88;4995633;28;1969;-59
2023/08/08 11:05:34;;;;;;;;;;;;;;;19.21;100.00;99664.22;4995298;28;810;-59
2023/08/08 11:08:01;;;;;;;;;;;;;;;19.40;100.00;99670.63;4995341;28;861;-58
2023/08/08 11:10:31;;;;;;;;;;;;;;;19.83;100.00;99670.78;4995233;28;841;-59
2023/08/08 11:13:03;;;;;;;;;;;;;;;20.36;100.00;99667.56;4995255;28;861;-58
2023/08/08 11:15:31;;;;;;;;;;;;;;;20.94;100.00;99671.19;4995157;28;1292;-59
2023/08/08 11:17:59;;;;;;;;;;;;;;;21.00;100.00;99686.16;4995214;28;890;-59
2023/08/08 11:20:29;;;;;;;;;;;;;;;21.40;100.00;99673.66;4995145;28;849;-58
2023/08/08 11:22:55;;;;;;;;;;;;;;;21.84;100.00;99683.50;4994944;28;1906;-58
2023/08/08 11:25:30;;;;;;;;;;;;;;;22.49;100.00;99686.41;4995306;28;810;-58
2023/08/08 11:27:57;;;;;;;;;;;;;;;22.52;99.30;99674.19;4995096;28;807;-58
2023/08/08 11:30:27;;;;;;;;;;;;;;;23.19;98.65;99675.19;4994924;28;859;-58
2023/08/08 11:32:54;;;;;;;;;;;;;;;23.95;94.65;99684.75;4994745;28;931;-59
2023/08/08 11:35:22;;;;;;;;;;;;;;;24.20;91.06;99663.44;4994774;28;886;-58
2023/08/08 11:37:48;;;;;;;;;;;;;;;24.24;90.90;99670.41;4994725;28;831;-59
2023/08/08 11:40:15;;;;;;;;;;;;;;;24.44;89.53;99665.94;4994624;28;939;-58
2023/08/08 11:42:44;;;;;;;;;;;;;;;24.59;88.32;99669.41;4994647;28;949;-59
2023/08/08 11:45:12;;;;;;;;;;;;;;;25.29;83.33;99661.59;4994720;28;1890;-60
2023/08/08 11:47:39;;;;;;;;;;;;;;;24.95;78.23;99652.91;4994281;28;1448;-60
2023/08/08 12:02:16;;;;;;;;;;;;;;;23.39;76.21;99626.44;4993872;28;800;-60
2023/08/08 12:04:46;;;;;;;;;;;;;;;24.54;73.50;99624.94;4993732;28;1969;-59
2023/08/08 12:07:13;;;;;;;;;;;;;;;25.00;69.95;99604.09;4994159;28;867;-61
2023/08/08 12:09:40;;;;;;;;;;;;;;;24.89;66.58;99606.88;4994403;28;894;-59
2023/08/08 12:12:06;;;;;;;;;;;;;;;24.55;64.36;99609.53;4994091;28;894;-59
2023/08/08 12:14:39;;;;;;;;;;;;;;;24.67;64.87;99609.63;4992703;28;930;-59
2023/08/08 12:17:04;;;;;;;;;;;;;;;24.49;63.89;99610.78;4994149;28;1276;-59
2023/08/08 12:19:31;;;;;;;;;;;;;;;24.02;64.22;99603.22;4993968;28;914;-59
2023/08/08 12:21:57;;;;;;;;;;;;;;;24.50;63.44;99595.38;4993966;28;834;-59
2023/08/08 12:24:24;;;;;;;;;;;;;;;26.28;58.73;99599.19;4993819;28;1890;-59
2023/08/08 12:26:50;;;;;;;;;;;;;;;27.48;53.66;99589.81;4993895;28;831;-59
2023/08/08 12:29:17;;;;;;;;;;;;;;;28.54;49.10;99586.63;4993770;28;834;-58
2023/08/08 12:31:43;;;;;;;;;;;;;;;29.19;46.68;99586.91;4993654;28;967;-59
2023/08/08 12:34:10;;;;;;;;;;;;;;;29.27;43.82;99582.16;4993697;28;842;-59
2023/08/08 12:36:36;;;;;;;;;;;;;;;29.26;42.94;99589.91;4993836;28;808;-60
2023/08/08 12:39:03;;;;;;;;;;;;;;;28.86;41.67;99591.69;4992479;28;881;-60
2023/08/08 12:41:30;;;;;;;;;;;;;;;28.66;42.71;99588.06;4993579;28;827;-59
2023/08/08 12:43:56;;;;;;;;;;;;;;;28.77;42.07;99581.47;4993374;28;1958;-60
2023/08/08 12:46:24;;;;;;;;;;;;;;;28.15;42.50;99589.84;4993584;28;1413;-59
2023/08/08 12:48:51;;;;;;;;;;;;;;;28.66;42.05;99581.59;4993431;28;898;-59
2023/08/08 12:51:18;;;;;;;;;;;;;;;28.83;41.05;99589.94;4993647;28;896;-60
2023/08/08 12:53:46;;;;;;;;;;;;;;;28.22;41.73;99577.88;4993222;28;1081;-59
2023/08/08 12:56:13;;;;;;;;;;;;;;;27.83;42.13;99587.50;4993327;28;827;-60
2023/08/08 12:58:40;;;;;;;;;;;;;;;28.04;42.79;99587.88;4993231;28;883;-59
2023/08/08 13:01:07;;;;;;;;;;;;;;;28.08;43.00;99589.13;4993096;28;934;-60
2023/08/08 13:03:34;;;;;;;;;;;;;;;28.25;43.10;99583.28;4993049;28;1902;-59
2023/08/08 13:06:01;;;;;;;;;;;;;;;27.97;42.92;99579.91;4993342;28;907;-60
2023/08/08 13:08:28;;;;;;;;;;;;;;;28.29;43.17;99588.66;4993211;28;905;-60
2023/08/08 13:10:54;;;;;;;;;;;;;;;28.32;42.73;99581.94;4992542;28;830;-59
2023/08/08 13:13:24;;;;;;;;;;;;;;;28.28;43.55;99592.81;4992824;28;879;-60
2023/08/08 13:15:52;;;;;;;;;;;;;;;28.25;42.58;99586.13;4992953;28;897;-60
2023/08/08 13:18:19;;;;;;;;;;;;;;;28.08;42.77;99574.16;4992894;28;874;-59
2023/08/08 13:20:45;;;;;;;;;;;;;;;28.15;43.67;99582.09;4992784;28;910;-60
2023/08/08 13:23:12;;;;;;;;;;;;;;;28.66;42.38;99579.53;4992711;28;1949;-60
2023/08/08 13:25:40;;;;;;;;;;;;;;;28.82;41.51;99606.22;4992866;28;899;-60
2023/08/08 13:28:07;;;;;;;;;;;;;;;28.58;42.13;99584.25;4992709;28;931;-60
2023/08/08 13:30:34;;;;;;;;;;;;;;;28.07;42.57;99592.50;4992815;28;819;-60
2023/08/08 13:32:59;;;;;;;;;;;;;;;27.85;44.34;99596.25;4992649;28;885;-60
2023/08/08 13:35:26;;;;;;;;;;;;;;;27.96;44.50;99589.75;4992834;28;823;-60
2023/08/08 13:37:54;;;;;;;;;;;;;;;27.93;44.57;99591.59;4992597;28;997;-60
2023/08/08 13:40:21;;;;;;;;;;;;;;;27.96;45.20;99601.13;4992661;28;971;-60
2023/08/08 13:42:48;;;;;;;;;;;;;;;28.54;44.41;99600.09;4991270;28;838;-60
2023/08/08 13:45:14;;;;;;;;;;;;;;;28.87;44.07;99601.78;4992429;28;1890;-59
2023/08/08 13:47:42;;;;;;;;;;;;;;;28.86;42.99;99603.09;4991168;28;1230;-60
2023/08/08 13:50:08;;;;;;;;;;;;;;;29.18;43.27;99608.16;4992490;28;1040;-60
2023/08/08 13:52:35;;;;;;;;;;;;;;;29.41;42.38;99605.78;4991301;28;1273;-59
2023/08/08 13:55:02;;;;;;;;;;;;;;;29.48;42.55;99596.59;4992538;28;862;-60
2023/08/08 13:57:29;;;;;;;;;;;;;;;29.71;41.98;99611.31;4992461;28;862;-60
2023/08/08 13:59:56;;;;;;;;;;;;;;;29.13;43.12;99609.00;4992496;28;814;-60
2023/08/08 14:02:23;;;;;;;;;;;;;;;29.69;42.56;99603.28;4992403;28;817;-58
2023/08/08 14:04:49;;;;;;;;;;;;;;;30.21;41.83;99600.38;4992215;28;1969;-58
2023/08/08 14:07:16;;;;;;;;;;;;;;;29.36;42.62;99618.78;4992454;28;802;-58
2023/08/08 14:09:42;;;;;;;;;;;;;;;28.88;43.57;99628.91;4992291;28;1243;-58
2023/08/08 14:12:10;;;;;;;;;;;;;;;28.64;43.90;99619.09;4991016;28;1618;-58
2023/08/08 14:14:36;;;;;;;;;;;;;;;28.61;44.92;99619.38;4992154;28;934;-58
2023/08/08 14:17:03;;;;;;;;;;;;;;;28.47;45.49;99629.84;4992361;28;898;-58
2023/08/08 14:19:29;;;;;;;;;;;;;;;28.55;45.74;99622.31;4992201;28;1143;-58
2023/08/08 14:21:56;;;;;;;;;;;;;;;28.42;45.54;99624.97;4993657;28;827;-58
2023/08/08 14:24:22;;;;;;;;;;;;;;;28.43;45.95;99630.13;4996108;28;1951;-58
2023/08/08 14:26:49;;;;;;;;;;;;;;;28.39;45.53;99637.41;4996002;28;872;-58
2023/08/08 14:29:15;;;;;;;;;;;;;;;28.35;45.56;99626.31;4995946;28;915;-58
2023/08/08 14:31:42;;;;;;;;;;;;;;;28.45;45.81;99632.44;4995983;28;853;-58
2023/08/08 14:34:09;;;;;;;;;;;;;;;28.52;46.02;99625.44;4994671;28;879;-58
2023/08/08 14:36:36;;;;;;;;;;;;;;;28.50;45.66;99620.25;4995917;28;803;-58
2023/08/08 14:39:06;;;;;;;;;;;;;;;28.37;45.33;99622.97;4995938;28;807;-58
2023/08/08 14:41:33;;;;;;;;;;;;;;;28.34;45.40;99624.78;4995670;28;906;-57
2023/08/08 14:44:00;;;;;;;;;;;;;;;28.30;45.94;99630.75;4995732;28;1953;-57
2023/08/08 14:46:26;;;;;;;;;;;;;;;28.29;45.77;99629.22;4995698;28;1433;-58
2023/08/08 14:48:53;;;;;;;;;;;;;;;28.15;44.83;99629.63;4995998;28;807;-58
2023/08/08 14:51:20;;;;;;;;;;;;;;;28.27;44.63;99629.00;4995684;28;815;-58
2023/08/08 14:53:47;;;;;;;;;;;;;;;28.62;43.67;99629.47;4995650;28;839;-58
2023/08/08 14:56:14;;;;;;;;;;;;;;;28.62;42.90;99626.63;4995488;28;859;-58
2023/08/08 14:58:41;;;;;;;;;;;;;;;28.70;42.31;99625.50;4995483;28;883;-58
2023/08/08 15:01:07;;;;;;;;;;;;;;;28.76;41.84;99625.41;4995443;28;870;-58
2023/08/08 15:03:34;;;;;;;;;;;;;;;29.00;41.86;99630.31;4995293;28;1990;-57
2023/08/08 15:06:01;;;;;;;;;;;;;;;28.59;42.56;99625.63;4995387;28;815;-57
2023/08/08 15:08:27;;;;;;;;;;;;;;;28.83;42.31;99632.59;4995437;28;891;-58
2023/08/08 15:10:55;;;;;;;;;;;;;;;29.06;41.10;99633.09;4995176;28;836;-57
2023/08/08 15:13:22;;;;;;;;;;;;;;;29.62;40.58;99628.78;4995134;28;942;-57
2023/08/08 15:15:49;;;;;;;;;;;;;;;29.42;41.09;99636.53;4995236;28;838;-57
2023/08/08 15:18:16;;;;;;;;;;;;;;;29.33;41.09;99639.75;4995111;28;803;-57
2023/08/08 15:20:42;;;;;;;;;;;;;;;29.66;40.40;99634.91;4995126;28;843;-57
2023/08/08 15:23:10;;;;;;;;;;;;;;;29.74;40.25;99638.69;4995071;28;1898;-57
2023/08/08 15:25:36;;;;;;;;;;;;;;;29.49;40.36;99647.31;4994994;28;901;-57
2023/08/08 15:28:06;;;;;;;;;;;;;;;29.66;40.30;99644.22;4994935;28;798;-57
2023/08/08 15:30:32;;;;;;;;;;;;;;;29.42;40.62;99647.91;4994875;28;847;-57
2023/08/08 15:32:58;;;;;;;;;;;;;;;29.24;40.96;99651.53;4994455;28;890;-57
2023/08/08 15:35:25;;;;;;;;;;;;;;;28.92;41.38;99655.75;4994791;28;843;-57
2023/08/08 15:37:52;;;;;;;;;;;;;;;28.49;41.43;99658.53;4993611;28;881;-57
2023/08/08 15:40:19;;;;;;;;;;;;;;;27.75;42.33;99655.44;4994739;28;826;-57
2023/08/08 15:42:46;;;;;;;;;;;;;;;26.96;43.22;99660.69;4994982;28;810;-57
2023/08/08 15:45:13;;;;;;;;;;;;;;;26.37;44.70;99659.72;4994796;28;1947;-57
2023/08/08 15:47:39;;;;;;;;;;;;;;;26.07;45.71;99660.22;4994401;28;1251;-57
2023/08/08 15:50:07;;;;;;;;;;;;;;;25.83;46.17;99664.28;4994505;28;824;-57
2023/08/08 15:52:35;;;;;;;;;;;;;;;25.76;46.05;99664.03;4994650;28;1063;-56
2023/08/08 15:55:03;;;;;;;;;;;;;;;25.82;46.36;99671.25;4994460;28;886;-57
2023/08/08 15:57:31;;;;;;;;;;;;;;;26.06;46.04;99664.38;4994678;28;958;-56
2023/08/08 15:59:58;;;;;;;;;;;;;;;26.17;46.20;99667.19;4993162;28;926;-57
2023/08/08 16:02:24;;;;;;;;;;;;;;;26.26;45.62;99674.66;4994307;28;864;-56
2023/08/08 16:04:52;;;;;;;;;;;;;;;26.40;45.04;99675.69;4994193;28;1914;-57
2023/08/08 16:07:19;;;;;;;;;;;;;;;26.12;44.51;99676.47;4994128;28;942;-56
2023/08/08 16:09:46;;;;;;;;;;;;;;;25.78;44.20;99676.38;4994037;28;919;-57
2023/08/08 16:12:13;;;;;;;;;;;;;;;25.59;44.50;99687.41;4992811;28;851;-56
2023/08/08 16:14:40;;;;;;;;;;;;;;;25.36;44.48;99686.53;4994077;28;925;-56
2023/08/08 16:17:07;;;;;;;;;;;;;;;25.15;44.83;99679.47;4994126;28;850;-56
2023/08/08 16:19:33;;;;;;;;;;;;;;;24.81;44.92;99691.38;4994091;28;946;-57
2023/08/08 16:22:00;;;;;;;;;;;;;;;24.60;45.79;99685.09;4993916;28;884;-58
2023/08/08 16:24:26;;;;;;;;;;;;;;;24.54;45.40;99692.75;4993874;28;1953;-58
2023/08/08 16:26:53;;;;;;;;;;;;;;;24.48;45.93;99696.78;4993885;28;882;-58
2023/08/08 16:29:19;;;;;;;;;;;;;;;24.41;45.62;99697.97;4993951;28;839;-58
2023/08/08 16:31:47;;;;;;;;;;;;;;;24.33;45.90;99700.50;4993794;28;894;-58
2023/08/08 16:34:13;;;;;;;;;;;;;;;24.21;46.35;99698.84;4993977;28;815;-58
2023/08/08 16:36:40;;;;;;;;;;;;;;;24.08;46.89;99702.06;4993700;28;827;-58
2023/08/08 16:39:08;;;;;;;;;;;;;;;23.99;47.00;99705.06;4993486;28;950;-58
2023/08/08 16:41:35;;;;;;;;;;;;;;;23.84;47.35;99699.53;4993613;28;926;-58
2023/08/08 16:44:03;;;;;;;;;;;;;;;23.72;47.68;99697.81;4992956;28;1893;-59
2023/08/08 16:46:30;;;;;;;;;;;;;;;23.68;47.74;99705.72;4993404;28;1309;-58
2023/08/08 16:48:57;;;;;;;;;;;;;;;23.64;47.81;99714.41;4993466;28;937;-58
2023/08/08 16:51:24;;;;;;;;;;;;;;;23.58;48.16;99705.13;4993359;28;783;-58
2023/08/08 16:53:51;;;;;;;;;;;;;;;23.50;48.21;99704.75;4993402;28;1005;-58
2023/08/08 16:56:18;;;;;;;;;;;;;;;23.42;48.45;99707.22;4993300;28;899;-58
2023/08/08 16:58:45;;;;;;;;;;;;;;;23.32;49.04;99710.69;4993216;28;952;-58
2023/08/08 17:01:12;;;;;;;;;;;;;;;23.22;49.09;99710.81;4993291;28;905;-58
2023/08/08 17:03:39;;;;;;;;;;;;;;;23.12;49.78;99708.63;4991973;28;1980;-58
2023/08/08 17:06:05;;;;;;;;;;;;;;;22.97;50.04;99711.47;4993271;28;844;-58
2023/08/08 17:08:32;;;;;;;;;;;;;;;22.81;50.35;99707.94;4992900;28;906;-58
2023/08/08 17:10:59;;;;;;;;;;;;;;;22.70;50.96;99712.59;4993149;28;869;-58
2023/08/08 17:13:26;;;;;;;;;;;;;;;22.61;50.91;99714.25;4992871;28;953;-58
2023/08/08 17:15:52;;;;;;;;;;;;;;;22.52;51.14;99713.63;4993108;28;814;-58
2023/08/08 17:18:19;;;;;;;;;;;;;;;22.43;51.45;99723.72;4992985;28;814;-58
2023/08/08 17:20:46;;;;;;;;;;;;;;;22.32;52.04;99722.75;4993005;28;886;-58
2023/08/08 17:23:13;;;;;;;;;;;;;;;22.22;52.15;99725.66;4992902;28;1953;-58
2023/08/08 17:25:40;;;;;;;;;;;;;;;22.11;52.75;99728.25;4993121;28;817;-58
2023/08/08 17:28:07;;;;;;;;;;;;;;;22.00;53.13;99731.66;4992857;28;858;-58
2023/08/08 17:30:33;;;;;;;;;;;;;;;21.84;53.56;99728.50;4992785;28;877;-58
2023/08/08 17:32:59;;;;;;;;;;;;;;;21.57;54.89;99724.66;4992976;28;881;-58
2023/08/08 17:35:29;;;;;;;;;;;;;;;21.20;57.03;99733.31;4992800;28;842;-58
2023/08/08 17:37:58;;;;;;;;;;;;;;;20.81;58.94;99736.03;4992837;28;882;-58
2023/08/08 17:40:25;;;;;;;;;;;;;;;20.52;60.45;99745.75;4992582;28;968;-58
2023/08/08 17:42:51;;;;;;;;;;;;;;;20.29;61.76;99746.44;4992668;28;861;-58
2023/08/08 17:45:18;;;;;;;;;;;;;;;20.17;62.74;99745.38;4992671;28;1878;-58
2023/08/08 17:47:45;;;;;;;;;;;;;;;20.00;63.91;99750.56;4992394;28;1585;-58
2023/08/08 17:50:12;;;;;;;;;;;;;;;19.84;65.24;99748.06;4992612;28;850;-58
2023/08/08 17:52:39;;;;;;;;;;;;;;;19.76;65.85;99748.38;4992452;28;919;-58
2023/08/08 17:55:06;;;;;;;;;;;;;;;19.72;66.55;99756.16;4992519;28;1026;-58
2023/08/08 17:57:32;;;;;;;;;;;;;;;19.64;67.29;99754.88;4998862;28;897;-58
2023/08/08 17:59:59;;;;;;;;;;;;;;;19.54;68.29;99756.13;4999197;28;821;-58
2023/08/08 18:02:26;;;;;;;;;;;;;;;19.44;69.02;99754.53;4998895;28;925;-58
2023/08/08 18:04:53;;;;;;;;;;;;;;;19.38;69.39;99752.34;4997653;28;1967;-58
2023/08/08 18:07:21;;;;;;;;;;;;;;;19.35;69.75;99761.72;4998833;28;898;-58
2023/08/08 18:09:49;;;;;;;;;;;;;;;19.43;69.46;99753.00;4998865;28;863;-58
2023/08/08 18:12:16;;;;;;;;;;;;;;;19.64;68.26;99765.31;4998778;28;858;-58
2023/08/08 18:14:43;;;;;;;;;;;;;;;19.68;68.15;99763.16;4998885;28;822;-58
2023/08/08 18:17:10;;;;;;;;;;;;;;;19.71;67.84;99763.00;4998784;28;969;-58